sensor_id;sensor_type;location;lat;lon;timestamp;P1;durP1;ratioP1;P2;durP2;ratioP2
21503;SDS011;10913;51.992;9.228;2023-05-10T00:00:33;6.80;;;6.10;;
21503;SDS011;10913;51.992;9.228;2023-05-10T00:02:59;6.68;;;6.07;;
21503;SDS011;10913;51.992;9.228;2023-05-10T00:05:24;6.72;;;6.13;;
21503;SDS011;10913;51.992;9.228;2023-05-10T00:07:49;7.07;;;6.47;;
21503;SDS011;10913;51.992;9.228;2023-05-10T00:10:15;6.68;;;6.07;;
21503;SDS011;10913;51.992;9.228;2023-05-10T00:12:40;7.00;;;6.50;;
21503;SDS011;10913;51.992;9.228;2023-05-10T00:15:06;7.03;;;6.25;;
21503;SDS011;10913;51.992;9.228;2023-05-10T00:17:32;6.82;;;6.22;;
21503;SDS011;10913;51.992;9.228;2023-05-10T00:19:57;7.22;;;6.53;;
21503;SDS011;10913;51.992;9.228;2023-05-10T00:22:22;7.32;;;6.63;;
21503;SDS011;10913;51.992;9.228;2023-05-10T00:24:48;6.78;;;6.18;;
21503;SDS011;10913;51.992;9.228;2023-05-10T00:27:13;6.70;;;6.10;;
21503;SDS011;10913;51.992;9.228;2023-05-10T00:29:38;6.40;;;5.90;;
21503;SDS011;10913;51.992;9.228;2023-05-10T00:32:04;5.90;;;5.40;;
21503;SDS011;10913;51.992;9.228;2023-05-10T00:34:29;6.28;;;5.68;;
21503;SDS011;10913;51.992;9.228;2023-05-10T00:36:55;6.28;;;5.75;;
21503;SDS011;10913;51.992;9.228;2023-05-10T00:39:21;6.65;;;6.05;;
21503;SDS011;10913;51.992;9.228;2023-05-10T00:41:46;6.32;;;5.82;;
21503;SDS011;10913;51.992;9.228;2023-05-10T00:44:12;6.35;;;5.85;;
21503;SDS011;10913;51.992;9.228;2023-05-10T00:46:37;6.32;;;5.78;;
21503;SDS011;10913;51.992;9.228;2023-05-10T00:49:02;6.53;;;5.93;;
21503;SDS011;10913;51.992;9.228;2023-05-10T00:51:29;6.63;;;6.07;;
21503;SDS011;10913;51.992;9.228;2023-05-10T00:53:55;7.15;;;6.55;;
21503;SDS011;10913;51.992;9.228;2023-05-10T00:56:21;6.93;;;6.32;;
21503;SDS011;10913;51.992;9.228;2023-05-10T00:58:48;7.32;;;6.43;;
21503;SDS011;10913;51.992;9.228;2023-05-10T01:01:14;7.10;;;6.40;;
21503;SDS011;10913;51.992;9.228;2023-05-10T01:03:39;7.53;;;6.85;;
21503;SDS011;10913;51.992;9.228;2023-05-10T01:06:05;6.88;;;6.28;;
21503;SDS011;10913;51.992;9.228;2023-05-10T01:08:31;7.07;;;6.38;;
21503;SDS011;10913;51.992;9.228;2023-05-10T01:10:56;7.18;;;6.57;;
21503;SDS011;10913;51.992;9.228;2023-05-10T01:13:38;6.70;;;6.10;;
21503;SDS011;10913;51.992;9.228;2023-05-10T01:16:06;7.10;;;6.50;;
21503;SDS011;10913;51.992;9.228;2023-05-10T01:18:37;7.10;;;6.40;;
21503;SDS011;10913;51.992;9.228;2023-05-10T01:21:09;6.88;;;6.20;;
21503;SDS011;10913;51.992;9.228;2023-05-10T01:32:42;6.80;;;6.20;;
21503;SDS011;10913;51.992;9.228;2023-05-10T01:43:22;7.68;;;6.93;;
21503;SDS011;10913;51.992;9.228;2023-05-10T01:46:10;7.28;;;6.57;;
21503;SDS011;10913;51.992;9.228;2023-05-10T01:48:43;7.97;;;7.00;;
21503;SDS011;10913;51.992;9.228;2023-05-10T01:51:14;7.93;;;7.18;;
21503;SDS011;10913;51.992;9.228;2023-05-10T01:53:42;7.60;;;6.90;;
21503;SDS011;10913;51.992;9.228;2023-05-10T01:56:11;7.82;;;7.03;;
21503;SDS011;10913;51.992;9.228;2023-05-10T01:58:38;9.00;;;8.13;;
21503;SDS011;10913;51.992;9.228;2023-05-10T02:01:07;8.32;;;7.45;;
21503;SDS011;10913;51.992;9.228;2023-05-10T02:03:35;8.90;;;7.70;;
21503;SDS011;10913;51.992;9.228;2023-05-10T02:06:02;9.02;;;8.00;;
21503;SDS011;10913;51.992;9.228;2023-05-10T02:08:29;8.70;;;7.90;;
21503;SDS011;10913;51.992;9.228;2023-05-10T02:10:56;8.82;;;8.00;;
21503;SDS011;10913;51.992;9.228;2023-05-10T02:13:23;7.88;;;7.18;;
21503;SDS011;10913;51.992;9.228;2023-05-10T02:15:50;8.35;;;7.55;;
21503;SDS011;10913;51.992;9.228;2023-05-10T02:18:17;8.80;;;8.02;;
21503;SDS011;10913;51.992;9.228;2023-05-10T02:20:44;8.90;;;8.10;;
21503;SDS011;10913;51.992;9.228;2023-05-10T02:23:11;8.65;;;7.85;;
21503;SDS011;10913;51.992;9.228;2023-05-10T02:25:38;8.32;;;7.63;;
21503;SDS011;10913;51.992;9.228;2023-05-10T02:28:05;8.98;;;8.18;;
21503;SDS011;10913;51.992;9.228;2023-05-10T02:30:32;8.43;;;7.63;;
21503;SDS011;10913;51.992;9.228;2023-05-10T02:32:59;9.23;;;8.32;;
21503;SDS011;10913;51.992;9.228;2023-05-10T02:35:27;8.50;;;7.68;;
21503;SDS011;10913;51.992;9.228;2023-05-10T02:37:53;8.82;;;7.93;;
21503;SDS011;10913;51.992;9.228;2023-05-10T02:40:19;9.50;;;8.60;;
21503;SDS011;10913;51.992;9.228;2023-05-10T02:42:47;8.82;;;8.02;;
21503;SDS011;10913;51.992;9.228;2023-05-10T02:45:18;8.45;;;7.65;;
21503;SDS011;10913;51.992;9.228;2023-05-10T02:47:45;8.57;;;7.78;;
21503;SDS011;10913;51.992;9.228;2023-05-10T02:50:11;8.27;;;7.57;;
21503;SDS011;10913;51.992;9.228;2023-05-10T02:52:39;8.60;;;7.80;;
21503;SDS011;10913;51.992;9.228;2023-05-10T02:55:08;9.35;;;8.45;;
21503;SDS011;10913;51.992;9.228;2023-05-10T02:57:34;10.68;;;8.95;;
21503;SDS011;10913;51.992;9.228;2023-05-10T03:00:06;9.90;;;8.90;;
21503;SDS011;10913;51.992;9.228;2023-05-10T03:02:32;8.80;;;7.90;;
21503;SDS011;10913;51.992;9.228;2023-05-10T03:04:57;8.80;;;8.00;;
21503;SDS011;10913;51.992;9.228;2023-05-10T03:07:22;8.13;;;7.43;;
21503;SDS011;10913;51.992;9.228;2023-05-10T03:09:48;8.05;;;7.28;;
21503;SDS011;10913;51.992;9.228;2023-05-10T03:14:53;7.85;;;7.20;;
21503;SDS011;10913;51.992;9.228;2023-05-10T03:20:08;7.78;;;7.07;;
21503;SDS011;10913;51.992;9.228;2023-05-10T03:22:51;9.10;;;7.30;;
21503;SDS011;10913;51.992;9.228;2023-05-10T03:25:20;8.30;;;7.50;;
21503;SDS011;10913;51.992;9.228;2023-05-10T03:27:47;7.80;;;7.10;;
21503;SDS011;10913;51.992;9.228;2023-05-10T03:30:14;8.00;;;7.28;;
21503;SDS011;10913;51.992;9.228;2023-05-10T03:32:41;8.82;;;7.93;;
21503;SDS011;10913;51.992;9.228;2023-05-10T03:35:09;8.73;;;7.88;;
21503;SDS011;10913;51.992;9.228;2023-05-10T03:37:36;8.93;;;7.80;;
21503;SDS011;10913;51.992;9.228;2023-05-10T03:40:02;10.50;;;8.50;;
21503;SDS011;10913;51.992;9.228;2023-05-10T03:42:28;8.90;;;8.10;;
21503;SDS011;10913;51.992;9.228;2023-05-10T03:44:53;8.57;;;7.68;;
21503;SDS011;10913;51.992;9.228;2023-05-10T03:47:19;9.20;;;8.30;;
21503;SDS011;10913;51.992;9.228;2023-05-10T03:49:44;9.35;;;8.20;;
21503;SDS011;10913;51.992;9.228;2023-05-10T03:52:10;10.32;;;8.70;;
21503;SDS011;10913;51.992;9.228;2023-05-10T03:54:35;10.38;;;9.38;;
21503;SDS011;10913;51.992;9.228;2023-05-10T03:57:01;8.95;;;8.10;;
21503;SDS011;10913;51.992;9.228;2023-05-10T03:59:27;11.20;;;10.10;;
21503;SDS011;10913;51.992;9.228;2023-05-10T04:01:53;11.35;;;10.15;;
21503;SDS011;10913;51.992;9.228;2023-05-10T04:04:18;9.52;;;8.52;;
21503;SDS011;10913;51.992;9.228;2023-05-10T04:06:45;8.25;;;7.32;;
21503;SDS011;10913;51.992;9.228;2023-05-10T04:09:11;6.10;;;5.57;;
21503;SDS011;10913;51.992;9.228;2023-05-10T04:11:36;3.20;;;2.80;;
21503;SDS011;10913;51.992;9.228;2023-05-10T04:14:02;3.92;;;2.92;;
21503;SDS011;10913;51.992;9.228;2023-05-10T04:16:27;2.00;;;1.90;;
21503;SDS011;10913;51.992;9.228;2023-05-10T04:18:52;2.15;;;1.80;;
21503;SDS011;10913;51.992;9.228;2023-05-10T04:21:18;1.77;;;1.48;;
21503;SDS011;10913;51.992;9.228;2023-05-10T04:23:43;1.42;;;1.33;;
21503;SDS011;10913;51.992;9.228;2023-05-10T04:26:09;1.35;;;1.30;;
21503;SDS011;10913;51.992;9.228;2023-05-10T04:28:34;1.23;;;1.23;;
21503;SDS011;10913;51.992;9.228;2023-05-10T04:31:03;1.52;;;1.42;;
21503;SDS011;10913;51.992;9.228;2023-05-10T04:33:33;1.23;;;1.20;;
21503;SDS011;10913;51.992;9.228;2023-05-10T04:35:59;1.40;;;1.30;;
21503;SDS011;10913;51.992;9.228;2023-05-10T04:38:25;1.67;;;1.58;;
21503;SDS011;10913;51.992;9.228;2023-05-10T04:40:51;1.80;;;1.52;;
21503;SDS011;10913;51.992;9.228;2023-05-10T04:43:17;1.35;;;1.30;;
21503;SDS011;10913;51.992;9.228;2023-05-10T04:45:42;1.60;;;1.50;;
21503;SDS011;10913;51.992;9.228;2023-05-10T04:48:08;1.70;;;1.40;;
21503;SDS011;10913;51.992;9.228;2023-05-10T04:50:33;1.58;;;1.48;;
21503;SDS011;10913;51.992;9.228;2023-05-10T04:52:58;1.50;;;1.40;;
21503;SDS011;10913;51.992;9.228;2023-05-10T04:55:24;1.58;;;1.48;;
21503;SDS011;10913;51.992;9.228;2023-05-10T04:57:50;1.40;;;1.30;;
21503;SDS011;10913;51.992;9.228;2023-05-10T05:00:15;2.20;;;1.52;;
21503;SDS011;10913;51.992;9.228;2023-05-10T05:02:44;1.60;;;1.50;;
21503;SDS011;10913;51.992;9.228;2023-05-10T05:05:10;1.63;;;1.52;;
21503;SDS011;10913;51.992;9.228;2023-05-10T05:07:36;1.70;;;1.60;;
21503;SDS011;10913;51.992;9.228;2023-05-10T05:10:03;1.50;;;1.40;;
21503;SDS011;10913;51.992;9.228;2023-05-10T05:12:30;1.63;;;1.38;;
21503;SDS011;10913;51.992;9.228;2023-05-10T05:14:55;1.70;;;1.60;;
21503;SDS011;10913;51.992;9.228;2023-05-10T05:17:20;1.70;;;1.60;;
21503;SDS011;10913;51.992;9.228;2023-05-10T05:19:46;2.28;;;1.63;;
21503;SDS011;10913;51.992;9.228;2023-05-10T05:22:11;1.85;;;1.75;;
21503;SDS011;10913;51.992;9.228;2023-05-10T05:24:37;1.90;;;1.80;;
21503;SDS011;10913;51.992;9.228;2023-05-10T05:27:03;2.15;;;1.95;;
21503;SDS011;10913;51.992;9.228;2023-05-10T05:29:28;2.00;;;1.80;;
21503;SDS011;10913;51.992;9.228;2023-05-10T05:31:54;1.92;;;1.80;;
21503;SDS011;10913;51.992;9.228;2023-05-10T05:34:19;2.08;;;1.88;;
21503;SDS011;10913;51.992;9.228;2023-05-10T05:36:45;1.90;;;1.80;;
21503;SDS011;10913;51.992;9.228;2023-05-10T05:39:10;2.00;;;1.80;;
21503;SDS011;10913;51.992;9.228;2023-05-10T05:41:36;2.33;;;2.13;;
21503;SDS011;10913;51.992;9.228;2023-05-10T05:44:01;2.38;;;1.85;;
21503;SDS011;10913;51.992;9.228;2023-05-10T05:46:26;2.35;;;2.15;;
21503;SDS011;10913;51.992;9.228;2023-05-10T05:48:52;2.30;;;1.90;;
21503;SDS011;10913;51.992;9.228;2023-05-10T05:51:17;2.90;;;1.80;;
21503;SDS011;10913;51.992;9.228;2023-05-10T05:53:42;1.65;;;1.55;;
21503;SDS011;10913;51.992;9.228;2023-05-10T05:56:08;1.30;;;1.20;;
21503;SDS011;10913;51.992;9.228;2023-05-10T05:58:34;1.10;;;1.10;;
21503;SDS011;10913;51.992;9.228;2023-05-10T06:01:00;0.80;;;0.80;;
21503;SDS011;10913;51.992;9.228;2023-05-10T06:03:25;1.48;;;0.77;;
21503;SDS011;10913;51.992;9.228;2023-05-10T06:05:50;0.77;;;0.70;;
21503;SDS011;10913;51.992;9.228;2023-05-10T06:08:16;0.60;;;0.60;;
21503;SDS011;10913;51.992;9.228;2023-05-10T06:10:41;0.43;;;0.43;;
21503;SDS011;10913;51.992;9.228;2023-05-10T06:13:07;0.40;;;0.40;;
21503;SDS011;10913;51.992;9.228;2023-05-10T06:15:32;1.98;;;0.50;;
21503;SDS011;10913;51.992;9.228;2023-05-10T06:17:57;0.65;;;0.60;;
21503;SDS011;10913;51.992;9.228;2023-05-10T06:20:23;0.50;;;0.43;;
21503;SDS011;10913;51.992;9.228;2023-05-10T06:22:48;0.50;;;0.50;;
21503;SDS011;10913;51.992;9.228;2023-05-10T06:25:13;1.17;;;0.60;;
21503;SDS011;10913;51.992;9.228;2023-05-10T06:27:39;0.65;;;0.60;;
21503;SDS011;10913;51.992;9.228;2023-05-10T06:30:05;0.50;;;0.50;;
21503;SDS011;10913;51.992;9.228;2023-05-10T06:32:31;0.50;;;0.50;;
21503;SDS011;10913;51.992;9.228;2023-05-10T06:34:56;0.50;;;0.50;;
21503;SDS011;10913;51.992;9.228;2023-05-10T06:37:22;0.60;;;0.60;;
21503;SDS011;10913;51.992;9.228;2023-05-10T06:39:47;0.57;;;0.57;;
21503;SDS011;10913;51.992;9.228;2023-05-10T06:42:13;0.98;;;0.70;;
21503;SDS011;10913;51.992;9.228;2023-05-10T06:44:38;0.60;;;0.60;;
21503;SDS011;10913;51.992;9.228;2023-05-10T06:47:04;1.20;;;0.70;;
21503;SDS011;10913;51.992;9.228;2023-05-10T06:49:29;0.55;;;0.55;;
21503;SDS011;10913;51.992;9.228;2023-05-10T06:51:55;0.60;;;0.60;;
21503;SDS011;10913;51.992;9.228;2023-05-10T06:54:21;0.60;;;0.60;;
21503;SDS011;10913;51.992;9.228;2023-05-10T06:56:46;0.82;;;0.60;;
21503;SDS011;10913;51.992;9.228;2023-05-10T06:59:12;0.60;;;0.60;;
21503;SDS011;10913;51.992;9.228;2023-05-10T07:01:38;0.70;;;0.70;;
21503;SDS011;10913;51.992;9.228;2023-05-10T07:04:04;0.70;;;0.70;;
21503;SDS011;10913;51.992;9.228;2023-05-10T07:06:29;0.60;;;0.60;;
21503;SDS011;10913;51.992;9.228;2023-05-10T07:08:55;0.70;;;0.70;;
21503;SDS011;10913;51.992;9.228;2023-05-10T07:11:20;0.70;;;0.70;;
21503;SDS011;10913;51.992;9.228;2023-05-10T07:13:45;0.93;;;0.70;;
21503;SDS011;10913;51.992;9.228;2023-05-10T07:16:11;0.50;;;0.50;;
21503;SDS011;10913;51.992;9.228;2023-05-10T07:18:37;0.60;;;0.60;;
21503;SDS011;10913;51.992;9.228;2023-05-10T07:21:02;0.57;;;0.57;;
21503;SDS011;10913;51.992;9.228;2023-05-10T07:23:28;0.75;;;0.60;;
21503;SDS011;10913;51.992;9.228;2023-05-10T07:25:54;0.57;;;0.57;;
21503;SDS011;10913;51.992;9.228;2023-05-10T07:28:19;1.38;;;0.60;;
21503;SDS011;10913;51.992;9.228;2023-05-10T07:30:45;0.70;;;0.70;;
21503;SDS011;10913;51.992;9.228;2023-05-10T07:33:12;0.65;;;0.65;;
21503;SDS011;10913;51.992;9.228;2023-05-10T07:35:38;1.15;;;0.85;;
21503;SDS011;10913;51.992;9.228;2023-05-10T07:38:04;0.80;;;0.80;;
21503;SDS011;10913;51.992;9.228;2023-05-10T07:40:30;0.98;;;0.90;;
21503;SDS011;10913;51.992;9.228;2023-05-10T07:42:56;0.90;;;0.90;;
21503;SDS011;10913;51.992;9.228;2023-05-10T07:45:21;0.85;;;0.85;;
21503;SDS011;10913;51.992;9.228;2023-05-10T07:47:47;1.00;;;0.90;;
21503;SDS011;10913;51.992;9.228;2023-05-10T07:50:12;1.50;;;1.00;;
21503;SDS011;10913;51.992;9.228;2023-05-10T07:52:38;1.83;;;1.00;;
21503;SDS011;10913;51.992;9.228;2023-05-10T07:55:03;0.80;;;0.80;;
21503;SDS011;10913;51.992;9.228;2023-05-10T07:57:29;1.15;;;0.90;;
21503;SDS011;10913;51.992;9.228;2023-05-10T07:59:55;2.58;;;0.90;;
21503;SDS011;10913;51.992;9.228;2023-05-10T08:02:21;0.90;;;0.90;;
21503;SDS011;10913;51.992;9.228;2023-05-10T08:04:46;0.98;;;0.93;;
21503;SDS011;10913;51.992;9.228;2023-05-10T08:07:11;1.00;;;0.90;;
21503;SDS011;10913;51.992;9.228;2023-05-10T08:09:37;1.08;;;0.90;;
21503;SDS011;10913;51.992;9.228;2023-05-10T08:12:02;1.75;;;1.08;;
21503;SDS011;10913;51.992;9.228;2023-05-10T08:14:28;0.80;;;0.80;;
21503;SDS011;10913;51.992;9.228;2023-05-10T08:16:54;0.95;;;0.93;;
21503;SDS011;10913;51.992;9.228;2023-05-10T08:19:20;1.20;;;1.10;;
21503;SDS011;10913;51.992;9.228;2023-05-10T08:21:46;2.25;;;1.23;;
21503;SDS011;10913;51.992;9.228;2023-05-10T08:24:12;1.95;;;1.20;;
21503;SDS011;10913;51.992;9.228;2023-05-10T08:26:37;1.65;;;1.00;;
21503;SDS011;10913;51.992;9.228;2023-05-10T08:29:03;1.77;;;1.00;;
21503;SDS011;10913;51.992;9.228;2023-05-10T08:31:28;1.15;;;0.90;;
21503;SDS011;10913;51.992;9.228;2023-05-10T08:33:53;2.10;;;1.00;;
21503;SDS011;10913;51.992;9.228;2023-05-10T08:36:19;1.60;;;1.00;;
21503;SDS011;10913;51.992;9.228;2023-05-10T08:38:47;1.27;;;1.02;;
21503;SDS011;10913;51.992;9.228;2023-05-10T08:41:14;2.28;;;1.38;;
21503;SDS011;10913;51.992;9.228;2023-05-10T08:43:40;1.65;;;1.17;;
21503;SDS011;10913;51.992;9.228;2023-05-10T08:46:10;1.60;;;1.15;;
21503;SDS011;10913;51.992;9.228;2023-05-10T08:48:41;2.60;;;1.20;;
21503;SDS011;10913;51.992;9.228;2023-05-10T08:51:08;2.08;;;1.10;;
21503;SDS011;10913;51.992;9.228;2023-05-10T08:53:37;3.38;;;1.35;;
21503;SDS011;10913;51.992;9.228;2023-05-10T08:56:03;2.42;;;1.10;;
21503;SDS011;10913;51.992;9.228;2023-05-10T08:58:29;1.65;;;1.25;;
21503;SDS011;10913;51.992;9.228;2023-05-10T09:00:55;2.78;;;1.40;;
21503;SDS011;10913;51.992;9.228;2023-05-10T09:03:21;1.73;;;1.13;;
21503;SDS011;10913;51.992;9.228;2023-05-10T09:05:50;2.25;;;1.30;;
21503;SDS011;10913;51.992;9.228;2023-05-10T09:08:15;2.70;;;1.40;;
21503;SDS011;10913;51.992;9.228;2023-05-10T09:10:45;3.25;;;1.50;;
21503;SDS011;10913;51.992;9.228;2023-05-10T09:13:12;2.17;;;1.70;;
21503;SDS011;10913;51.992;9.228;2023-05-10T09:15:40;2.17;;;1.60;;
21503;SDS011;10913;51.992;9.228;2023-05-10T09:18:05;1.92;;;1.70;;
21503;SDS011;10913;51.992;9.228;2023-05-10T09:20:31;2.08;;;1.50;;
21503;SDS011;10913;51.992;9.228;2023-05-10T09:22:56;2.33;;;1.70;;
21503;SDS011;10913;51.992;9.228;2023-05-10T09:25:22;2.85;;;1.73;;
21503;SDS011;10913;51.992;9.228;2023-05-10T09:27:47;2.67;;;1.80;;
21503;SDS011;10913;51.992;9.228;2023-05-10T09:30:34;3.17;;;1.98;;
21503;SDS011;10913;51.992;9.228;2023-05-10T09:32:59;3.92;;;2.38;;
21503;SDS011;10913;51.992;9.228;2023-05-10T09:35:25;3.38;;;2.50;;
21503;SDS011;10913;51.992;9.228;2023-05-10T09:37:54;3.38;;;2.30;;
21503;SDS011;10913;51.992;9.228;2023-05-10T09:40:22;4.72;;;2.88;;
21503;SDS011;10913;51.992;9.228;2023-05-10T09:47:49;4.45;;;2.83;;
21503;SDS011;10913;51.992;9.228;2023-05-10T09:50:15;3.92;;;2.75;;
21503;SDS011;10913;51.992;9.228;2023-05-10T09:52:54;3.72;;;3.08;;
21503;SDS011;10913;51.992;9.228;2023-05-10T09:55:24;4.97;;;3.80;;
21503;SDS011;10913;51.992;9.228;2023-05-10T09:57:58;4.97;;;3.35;;
21503;SDS011;10913;51.992;9.228;2023-05-10T10:00:25;4.78;;;3.28;;
21503;SDS011;10913;51.992;9.228;2023-05-10T10:02:55;5.10;;;3.90;;
21503;SDS011;10913;51.992;9.228;2023-05-10T10:05:27;6.13;;;3.90;;
21503;SDS011;10913;51.992;9.228;2023-05-10T10:07:57;5.20;;;3.88;;
21503;SDS011;10913;51.992;9.228;2023-05-10T10:10:23;3.67;;;3.05;;
21503;SDS011;10913;51.992;9.228;2023-05-10T10:12:49;4.55;;;3.80;;
21503;SDS011;10913;51.992;9.228;2023-05-10T10:15:15;7.07;;;5.60;;
21503;SDS011;10913;51.992;9.228;2023-05-10T10:17:41;6.75;;;4.80;;
21503;SDS011;10913;51.992;9.228;2023-05-10T10:20:08;9.45;;;5.78;;
21503;SDS011;10913;51.992;9.228;2023-05-10T10:22:34;7.53;;;6.20;;
21503;SDS011;10913;51.992;9.228;2023-05-10T10:25:01;7.55;;;5.60;;
21503;SDS011;10913;51.992;9.228;2023-05-10T10:35:53;8.77;;;5.65;;
21503;SDS011;10913;51.992;9.228;2023-05-10T10:38:20;6.80;;;4.63;;
21503;SDS011;10913;51.992;9.228;2023-05-10T10:40:46;8.25;;;4.80;;
21503;SDS011;10913;51.992;9.228;2023-05-10T10:43:25;5.25;;;3.67;;
21503;SDS011;10913;51.992;9.228;2023-05-10T10:46:10;7.75;;;4.32;;
21503;SDS011;10913;51.992;9.228;2023-05-10T10:48:41;4.47;;;3.60;;
21503;SDS011;10913;51.992;9.228;2023-05-10T10:51:11;6.60;;;4.43;;
21503;SDS011;10913;51.992;9.228;2023-05-10T10:53:38;5.75;;;4.47;;
21503;SDS011;10913;51.992;9.228;2023-05-10T10:56:08;5.78;;;4.72;;
21503;SDS011;10913;51.992;9.228;2023-05-10T10:58:35;7.15;;;5.63;;
21503;SDS011;10913;51.992;9.228;2023-05-10T11:03:37;8.60;;;5.32;;
21503;SDS011;10913;51.992;9.228;2023-05-10T11:06:03;7.65;;;6.13;;
21503;SDS011;10913;51.992;9.228;2023-05-10T11:08:29;8.40;;;5.68;;
21503;SDS011;10913;51.992;9.228;2023-05-10T11:13:42;9.60;;;7.28;;
21503;SDS011;10913;51.992;9.228;2023-05-10T11:16:40;12.05;;;7.63;;
21503;SDS011;10913;51.992;9.228;2023-05-10T11:19:11;10.30;;;7.32;;
21503;SDS011;10913;51.992;9.228;2023-05-10T11:24:13;9.63;;;7.55;;
21503;SDS011;10913;51.992;9.228;2023-05-10T11:26:40;9.55;;;7.35;;
21503;SDS011;10913;51.992;9.228;2023-05-10T11:29:06;8.80;;;7.32;;
21503;SDS011;10913;51.992;9.228;2023-05-10T11:31:31;8.60;;;7.05;;
21503;SDS011;10913;51.992;9.228;2023-05-10T11:33:57;8.30;;;6.20;;
21503;SDS011;10913;51.992;9.228;2023-05-10T11:36:25;10.35;;;7.85;;
21503;SDS011;10913;51.992;9.228;2023-05-10T11:38:52;7.25;;;6.45;;
21503;SDS011;10913;51.992;9.228;2023-05-10T11:41:19;8.18;;;5.57;;
21503;SDS011;10913;51.992;9.228;2023-05-10T11:43:49;6.75;;;4.93;;
21503;SDS011;10913;51.992;9.228;2023-05-10T11:46:16;7.18;;;4.93;;
21503;SDS011;10913;51.992;9.228;2023-05-10T11:48:45;8.73;;;5.85;;
21503;SDS011;10913;51.992;9.228;2023-05-10T11:51:13;6.00;;;4.88;;
21503;SDS011;10913;51.992;9.228;2023-05-10T11:53:39;7.88;;;5.43;;
21503;SDS011;10913;51.992;9.228;2023-05-10T11:56:05;8.13;;;6.03;;
21503;SDS011;10913;51.992;9.228;2023-05-10T11:58:32;7.55;;;5.30;;
21503;SDS011;10913;51.992;9.228;2023-05-10T12:01:01;6.63;;;5.93;;
21503;SDS011;10913;51.992;9.228;2023-05-10T12:03:28;9.02;;;7.35;;
21503;SDS011;10913;51.992;9.228;2023-05-10T12:05:57;7.43;;;5.30;;
21503;SDS011;10913;51.992;9.228;2023-05-10T12:08:25;6.95;;;5.93;;
21503;SDS011;10913;51.992;9.228;2023-05-10T12:11:06;7.65;;;6.57;;
21503;SDS011;10913;51.992;9.228;2023-05-10T12:13:36;7.25;;;6.30;;
21503;SDS011;10913;51.992;9.228;2023-05-10T12:16:12;6.82;;;5.40;;
21503;SDS011;10913;51.992;9.228;2023-05-10T12:18:58;8.90;;;6.83;;
21503;SDS011;10913;51.992;9.228;2023-05-10T12:21:25;6.72;;;5.97;;
21503;SDS011;10913;51.992;9.228;2023-05-10T12:23:53;7.90;;;6.15;;
21503;SDS011;10913;51.992;9.228;2023-05-10T12:26:27;8.50;;;6.40;;
21503;SDS011;10913;51.992;9.228;2023-05-10T12:28:53;9.18;;;6.18;;
21503;SDS011;10913;51.992;9.228;2023-05-10T12:31:18;6.82;;;5.57;;
21503;SDS011;10913;51.992;9.228;2023-05-10T12:33:44;6.22;;;5.40;;
21503;SDS011;10913;51.992;9.228;2023-05-10T12:36:11;8.05;;;5.90;;
21503;SDS011;10913;51.992;9.228;2023-05-10T12:38:39;7.03;;;5.90;;
21503;SDS011;10913;51.992;9.228;2023-05-10T12:41:12;7.25;;;5.43;;
21503;SDS011;10913;51.992;9.228;2023-05-10T12:43:38;5.55;;;4.80;;
21503;SDS011;10913;51.992;9.228;2023-05-10T12:46:08;8.60;;;5.70;;
21503;SDS011;10913;51.992;9.228;2023-05-10T12:48:38;6.57;;;5.43;;
21503;SDS011;10913;51.992;9.228;2023-05-10T12:51:05;5.30;;;4.75;;
21503;SDS011;10913;51.992;9.228;2023-05-10T12:53:34;6.93;;;4.40;;
21503;SDS011;10913;51.992;9.228;2023-05-10T12:56:00;6.65;;;5.32;;
21503;SDS011;10913;51.992;9.228;2023-05-10T12:58:25;5.53;;;4.82;;
21503;SDS011;10913;51.992;9.228;2023-05-10T13:00:50;5.68;;;4.95;;
21503;SDS011;10913;51.992;9.228;2023-05-10T13:03:16;8.50;;;5.63;;
21503;SDS011;10913;51.992;9.228;2023-05-10T13:05:42;5.93;;;5.18;;
21503;SDS011;10913;51.992;9.228;2023-05-10T13:08:07;8.23;;;6.10;;
21503;SDS011;10913;51.992;9.228;2023-05-10T13:10:32;6.40;;;5.38;;
21503;SDS011;10913;51.992;9.228;2023-05-10T13:12:58;6.78;;;5.57;;
21503;SDS011;10913;51.992;9.228;2023-05-10T13:15:24;5.45;;;4.72;;
21503;SDS011;10913;51.992;9.228;2023-05-10T13:17:50;7.18;;;5.70;;
21503;SDS011;10913;51.992;9.228;2023-05-10T13:20:15;10.15;;;5.63;;
21503;SDS011;10913;51.992;9.228;2023-05-10T13:22:42;9.18;;;6.00;;
21503;SDS011;10913;51.992;9.228;2023-05-10T13:25:08;5.43;;;4.40;;
21503;SDS011;10913;51.992;9.228;2023-05-10T13:27:33;4.57;;;4.15;;
21503;SDS011;10913;51.992;9.228;2023-05-10T13:29:59;5.80;;;4.38;;
21503;SDS011;10913;51.992;9.228;2023-05-10T13:32:25;7.25;;;5.10;;
21503;SDS011;10913;51.992;9.228;2023-05-10T13:34:50;6.05;;;4.82;;
21503;SDS011;10913;51.992;9.228;2023-05-10T13:37:16;6.75;;;4.60;;
21503;SDS011;10913;51.992;9.228;2023-05-10T13:39:41;5.13;;;4.25;;
21503;SDS011;10913;51.992;9.228;2023-05-10T13:42:07;5.88;;;4.15;;
21503;SDS011;10913;51.992;9.228;2023-05-10T13:44:32;4.63;;;3.70;;
21503;SDS011;10913;51.992;9.228;2023-05-10T13:46:58;6.13;;;4.78;;
21503;SDS011;10913;51.992;9.228;2023-05-10T13:49:24;7.20;;;4.95;;
21503;SDS011;10913;51.992;9.228;2023-05-10T13:51:49;6.20;;;4.47;;
21503;SDS011;10913;51.992;9.228;2023-05-10T13:54:15;6.07;;;4.43;;
21503;SDS011;10913;51.992;9.228;2023-05-10T13:56:44;7.60;;;5.00;;
21503;SDS011;10913;51.992;9.228;2023-05-10T13:59:09;5.28;;;4.45;;
21503;SDS011;10913;51.992;9.228;2023-05-10T14:01:35;5.38;;;3.97;;
21503;SDS011;10913;51.992;9.228;2023-05-10T14:04:01;5.57;;;4.63;;
21503;SDS011;10913;51.992;9.228;2023-05-10T14:06:26;6.03;;;4.35;;
21503;SDS011;10913;51.992;9.228;2023-05-10T14:08:52;6.20;;;4.28;;
21503;SDS011;10913;51.992;9.228;2023-05-10T14:11:18;4.55;;;4.07;;
21503;SDS011;10913;51.992;9.228;2023-05-10T14:13:44;5.53;;;4.15;;
21503;SDS011;10913;51.992;9.228;2023-05-10T14:16:09;7.30;;;4.68;;
21503;SDS011;10913;51.992;9.228;2023-05-10T14:18:34;5.15;;;4.50;;
21503;SDS011;10913;51.992;9.228;2023-05-10T14:21:01;6.05;;;4.45;;
21503;SDS011;10913;51.992;9.228;2023-05-10T14:23:27;5.43;;;4.18;;
21503;SDS011;10913;51.992;9.228;2023-05-10T14:25:53;5.97;;;4.30;;
21503;SDS011;10913;51.992;9.228;2023-05-10T14:28:19;5.07;;;4.30;;
21503;SDS011;10913;51.992;9.228;2023-05-10T14:30:45;5.13;;;4.15;;
21503;SDS011;10913;51.992;9.228;2023-05-10T14:33:11;6.07;;;3.83;;
21503;SDS011;10913;51.992;9.228;2023-05-10T14:35:37;4.53;;;3.83;;
21503;SDS011;10913;51.992;9.228;2023-05-10T14:38:03;4.30;;;3.78;;
21503;SDS011;10913;51.992;9.228;2023-05-10T14:40:28;3.90;;;3.50;;
21503;SDS011;10913;51.992;9.228;2023-05-10T14:42:54;4.72;;;3.75;;
21503;SDS011;10913;51.992;9.228;2023-05-10T14:45:21;4.28;;;3.70;;
21503;SDS011;10913;51.992;9.228;2023-05-10T14:47:47;4.47;;;3.30;;
21503;SDS011;10913;51.992;9.228;2023-05-10T14:50:13;3.35;;;2.90;;
21503;SDS011;10913;51.992;9.228;2023-05-10T14:52:39;3.88;;;3.20;;
21503;SDS011;10913;51.992;9.228;2023-05-10T14:55:04;3.35;;;3.03;;
21503;SDS011;10913;51.992;9.228;2023-05-10T14:57:30;3.53;;;3.10;;
21503;SDS011;10913;51.992;9.228;2023-05-10T14:59:56;3.58;;;2.85;;
21503;SDS011;10913;51.992;9.228;2023-05-10T15:02:21;3.25;;;2.55;;
21503;SDS011;10913;51.992;9.228;2023-05-10T15:04:47;2.85;;;2.40;;
21503;SDS011;10913;51.992;9.228;2023-05-10T15:07:12;2.60;;;2.33;;
21503;SDS011;10913;51.992;9.228;2023-05-10T15:09:40;2.95;;;2.30;;
21503;SDS011;10913;51.992;9.228;2023-05-10T15:12:05;2.40;;;2.20;;
21503;SDS011;10913;51.992;9.228;2023-05-10T15:14:31;2.90;;;2.25;;
21503;SDS011;10913;51.992;9.228;2023-05-10T15:16:57;2.78;;;2.47;;
21503;SDS011;10913;51.992;9.228;2023-05-10T15:19:23;3.10;;;2.63;;
21503;SDS011;10913;51.992;9.228;2023-05-10T15:21:48;3.72;;;2.38;;
21503;SDS011;10913;51.992;9.228;2023-05-10T15:24:13;3.17;;;2.60;;
21503;SDS011;10913;51.992;9.228;2023-05-10T15:26:39;3.35;;;2.75;;
21503;SDS011;10913;51.992;9.228;2023-05-10T15:29:05;4.25;;;3.45;;